sensor_id;sensor_type;location;lat;lon;timestamp;temperature;humidity
13049;DHT22;6591;51.446;5.404;2023-02-28T00:01:33;1.20;99.30
13049;DHT22;6591;51.446;5.404;2023-02-28T00:04:00;1.30;99.30
13049;DHT22;6591;51.446;5.404;2023-02-28T00:06:27;1.30;99.30
13049;DHT22;6591;51.446;5.404;2023-02-28T00:08:54;1.30;99.30
13049;DHT22;6591;51.446;5.404;2023-02-28T00:11:22;2.20;99.50
13049;DHT22;6591;51.446;5.404;2023-02-28T00:13:49;1.30;99.10
13049;DHT22;6591;51.446;5.404;2023-02-28T00:16:19;1.30;99.20
13049;DHT22;6591;51.446;5.404;2023-02-28T00:18:48;1.40;99.30
13049;DHT22;6591;51.446;5.404;2023-02-28T00:21:17;1.30;99.40
13049;DHT22;6591;51.446;5.404;2023-02-28T00:23:46;1.30;99.30
13049;DHT22;6591;51.446;5.404;2023-02-28T00:26:16;1.30;99.40
13049;DHT22;6591;51.446;5.404;2023-02-28T00:28:45;1.30;99.20
13049;DHT22;6591;51.446;5.404;2023-02-28T00:31:12;1.30;99.30
13049;DHT22;6591;51.446;5.404;2023-02-28T00:33:39;1.30;99.50
13049;DHT22;6591;51.446;5.404;2023-02-28T00:36:09;1.30;99.60
13049;DHT22;6591;51.446;5.404;2023-02-28T00:38:38;1.30;99.80
13049;DHT22;6591;51.446;5.404;2023-02-28T00:41:07;1.30;99.90
13049;DHT22;6591;51.446;5.404;2023-02-28T00:43:37;1.30;99.90
13049;DHT22;6591;51.446;5.404;2023-02-28T00:46:05;1.30;99.90
13049;DHT22;6591;51.446;5.404;2023-02-28T00:48:33;1.30;99.80
13049;DHT22;6591;51.446;5.404;2023-02-28T00:51:01;1.30;99.70
13049;DHT22;6591;51.446;5.404;2023-02-28T00:53:29;1.20;99.60
13049;DHT22;6591;51.446;5.404;2023-02-28T00:55:56;1.30;99.50
13049;DHT22;6591;51.446;5.404;2023-02-28T00:58:25;1.20;99.30
13049;DHT22;6591;51.446;5.404;2023-02-28T01:00:53;2.50;99.80
13049;DHT22;6591;51.446;5.404;2023-02-28T01:03:21;1.20;99.40
13049;DHT22;6591;51.446;5.404;2023-02-28T01:05:49;1.20;99.60
13049;DHT22;6591;51.446;5.404;2023-02-28T01:08:17;1.20;99.60
13049;DHT22;6591;51.446;5.404;2023-02-28T01:10:44;1.10;99.50
13049;DHT22;6591;51.446;5.404;2023-02-28T01:13:12;1.10;99.60
13049;DHT22;6591;51.446;5.404;2023-02-28T01:15:50;1.10;99.50
13049;DHT22;6591;51.446;5.404;2023-02-28T01:18:20;1.10;99.70
13049;DHT22;6591;51.446;5.404;2023-02-28T01:20:48;1.10;99.40
13049;DHT22;6591;51.446;5.404;2023-02-28T01:23:15;1.00;99.40
13049;DHT22;6591;51.446;5.404;2023-02-28T01:25:42;2.70;99.90
13049;DHT22;6591;51.446;5.404;2023-02-28T01:28:10;1.00;99.60
13049;DHT22;6591;51.446;5.404;2023-02-28T01:30:37;1.00;99.60
13049;DHT22;6591;51.446;5.404;2023-02-28T01:33:05;0.90;99.80
13049;DHT22;6591;51.446;5.404;2023-02-28T01:35:34;0.90;99.90
13049;DHT22;6591;51.446;5.404;2023-02-28T01:38:03;0.90;99.90
13049;DHT22;6591;51.446;5.404;2023-02-28T01:40:46;0.90;99.90
13049;DHT22;6591;51.446;5.404;2023-02-28T01:43:21;0.90;99.90
13049;DHT22;6591;51.446;5.404;2023-02-28T01:45:52;0.90;99.90
13049;DHT22;6591;51.446;5.404;2023-02-28T01:48:33;0.90;99.90
13049;DHT22;6591;51.446;5.404;2023-02-28T01:51:11;0.90;99.90
13049;DHT22;6591;51.446;5.404;2023-02-28T01:53:45;0.90;99.90
13049;DHT22;6591;51.446;5.404;2023-02-28T01:56:20;0.90;99.90
13049;DHT22;6591;51.446;5.404;2023-02-28T01:58:51;0.90;99.90
13049;DHT22;6591;51.446;5.404;2023-02-28T02:01:24;0.90;99.90
13049;DHT22;6591;51.446;5.404;2023-02-28T02:04:00;0.90;99.90
13049;DHT22;6591;51.446;5.404;2023-02-28T02:06:38;0.80;99.90
13049;DHT22;6591;51.446;5.404;2023-02-28T02:09:10;0.90;99.90
13049;DHT22;6591;51.446;5.404;2023-02-28T02:11:40;1.10;99.90
13049;DHT22;6591;51.446;5.404;2023-02-28T02:17:29;0.80;99.90
13049;DHT22;6591;51.446;5.404;2023-02-28T02:20:38;0.80;99.90
13049;DHT22;6591;51.446;5.404;2023-02-28T02:26:37;0.80;99.90
13049;DHT22;6591;51.446;5.404;2023-02-28T02:40:48;3.00;99.90
13049;DHT22;6591;51.446;5.404;2023-02-28T02:43:31;0.60;99.90
13049;DHT22;6591;51.446;5.404;2023-02-28T02:46:08;0.50;99.90
13049;DHT22;6591;51.446;5.404;2023-02-28T02:48:45;0.50;99.90
13049;DHT22;6591;51.446;5.404;2023-02-28T02:51:16;0.60;99.90
13049;DHT22;6591;51.446;5.404;2023-02-28T02:53:58;0.50;99.90
13049;DHT22;6591;51.446;5.404;2023-02-28T02:56:33;0.60;99.90
13049;DHT22;6591;51.446;5.404;2023-02-28T02:59:05;0.60;99.90
13049;DHT22;6591;51.446;5.404;2023-02-28T03:01:37;0.70;99.90
13049;DHT22;6591;51.446;5.404;2023-02-28T03:04:12;2.60;99.90
13049;DHT22;6591;51.446;5.404;2023-02-28T03:06:46;2.50;99.90
13049;DHT22;6591;51.446;5.404;2023-02-28T03:09:13;0.80;99.90
13049;DHT22;6591;51.446;5.404;2023-02-28T03:11:41;0.80;99.90
13049;DHT22;6591;51.446;5.404;2023-02-28T03:14:14;0.90;99.90
13049;DHT22;6591;51.446;5.404;2023-02-28T03:16:53;0.90;99.90
13049;DHT22;6591;51.446;5.404;2023-02-28T03:20:02;1.00;99.90
13049;DHT22;6591;51.446;5.404;2023-02-28T03:23:01;1.00;99.90
13049;DHT22;6591;51.446;5.404;2023-02-28T03:28:35;1.00;99.90
13049;DHT22;6591;51.446;5.404;2023-02-28T03:34:04;1.70;99.90
13049;DHT22;6591;51.446;5.404;2023-02-28T03:37:05;1.00;99.90
13049;DHT22;6591;51.446;5.404;2023-02-28T03:39:55;1.00;99.90
13049;DHT22;6591;51.446;5.404;2023-02-28T03:42:29;1.10;99.90
13049;DHT22;6591;51.446;5.404;2023-02-28T03:45:01;-1.20;99.90
13049;DHT22;6591;51.446;5.404;2023-02-28T03:50:45;1.30;99.90
13049;DHT22;6591;51.446;5.404;2023-02-28T03:53:23;1.90;99.90
13049;DHT22;6591;51.446;5.404;2023-02-28T03:56:18;1.40;99.90
13049;DHT22;6591;51.446;5.404;2023-02-28T03:58:54;1.40;99.90
13049;DHT22;6591;51.446;5.404;2023-02-28T04:04:03;1.60;99.90
13049;DHT22;6591;51.446;5.404;2023-02-28T04:06:32;1.70;99.90
13049;DHT22;6591;51.446;5.404;2023-02-28T04:09:02;3.40;99.90
13049;DHT22;6591;51.446;5.404;2023-02-28T04:11:37;1.80;99.90
13049;DHT22;6591;51.446;5.404;2023-02-28T04:14:08;1.90;99.90
13049;DHT22;6591;51.446;5.404;2023-02-28T04:16:39;2.00;99.90
13049;DHT22;6591;51.446;5.404;2023-02-28T04:19:10;2.10;99.90
13049;DHT22;6591;51.446;5.404;2023-02-28T04:21:44;4.20;99.90
13049;DHT22;6591;51.446;5.404;2023-02-28T04:24:18;2.20;99.90
13049;DHT22;6591;51.446;5.404;2023-02-28T04:26:49;2.20;99.90
13049;DHT22;6591;51.446;5.404;2023-02-28T04:29:21;2.30;99.90
13049;DHT22;6591;51.446;5.404;2023-02-28T04:31:50;2.30;99.90
13049;DHT22;6591;51.446;5.404;2023-02-28T04:34:20;4.60;99.90
13049;DHT22;6591;51.446;5.404;2023-02-28T04:36:48;2.40;99.90
13049;DHT22;6591;51.446;5.404;2023-02-28T04:39:37;3.70;99.90
13049;DHT22;6591;51.446;5.404;2023-02-28T04:42:04;2.50;99.90
13049;DHT22;6591;51.446;5.404;2023-02-28T04:44:32;2.50;99.90
13049;DHT22;6591;51.446;5.404;2023-02-28T04:46:59;3.60;99.90
13049;DHT22;6591;51.446;5.404;2023-02-28T04:49:26;3.80;99.90
13049;DHT22;6591;51.446;5.404;2023-02-28T04:51:53;4.60;99.90
13049;DHT22;6591;51.446;5.404;2023-02-28T04:54:20;2.60;99.90
13049;DHT22;6591;51.446;5.404;2023-02-28T04:56:47;0.60;99.40
13049;DHT22;6591;51.446;5.404;2023-02-28T04:59:17;4.50;99.90
13049;DHT22;6591;51.446;5.404;2023-02-28T05:01:49;4.70;99.90
13049;DHT22;6591;51.446;5.404;2023-02-28T05:04:16;2.60;99.90
13049;DHT22;6591;51.446;5.404;2023-02-28T05:06:44;2.70;99.90
13049;DHT22;6591;51.446;5.404;2023-02-28T05:09:11;3.20;99.90
13049;DHT22;6591;51.446;5.404;2023-02-28T05:11:39;2.70;99.90
13049;DHT22;6591;51.446;5.404;2023-02-28T05:14:12;3.70;99.90
13049;DHT22;6591;51.446;5.404;2023-02-28T05:16:40;2.70;99.90
13049;DHT22;6591;51.446;5.404;2023-02-28T05:19:07;2.70;99.90
13049;DHT22;6591;51.446;5.404;2023-02-28T05:21:51;2.80;99.90
13049;DHT22;6591;51.446;5.404;2023-02-28T05:24:21;2.80;99.90
13049;DHT22;6591;51.446;5.404;2023-02-28T05:26:52;4.70;99.90
13049;DHT22;6591;51.446;5.404;2023-02-28T05:29:21;2.80;99.90
13049;DHT22;6591;51.446;5.404;2023-02-28T05:31:48;2.80;99.80
13049;DHT22;6591;51.446;5.404;2023-02-28T05:34:16;2.80;99.90
13049;DHT22;6591;51.446;5.404;2023-02-28T05:36:43;2.80;99.80
13049;DHT22;6591;51.446;5.404;2023-02-28T05:39:11;2.80;99.80
13049;DHT22;6591;51.446;5.404;2023-02-28T05:41:43;2.80;99.80
13049;DHT22;6591;51.446;5.404;2023-02-28T05:44:10;4.40;99.90
13049;DHT22;6591;51.446;5.404;2023-02-28T05:46:38;3.80;99.90
13049;DHT22;6591;51.446;5.404;2023-02-28T05:49:05;2.80;99.60
13049;DHT22;6591;51.446;5.404;2023-02-28T05:51:33;3.70;99.90
13049;DHT22;6591;51.446;5.404;2023-02-28T05:54:03;3.10;99.80
13049;DHT22;6591;51.446;5.404;2023-02-28T05:56:30;2.80;99.60
13049;DHT22;6591;51.446;5.404;2023-02-28T05:58:57;2.80;99.60
13049;DHT22;6591;51.446;5.404;2023-02-28T06:01:32;4.70;99.90
13049;DHT22;6591;51.446;5.404;2023-02-28T06:04:06;2.90;99.80
13049;DHT22;6591;51.446;5.404;2023-02-28T06:06:45;5.30;99.90
13049;DHT22;6591;51.446;5.404;2023-02-28T06:09:13;2.90;99.80
13049;DHT22;6591;51.446;5.404;2023-02-28T06:11:42;2.80;99.60
13049;DHT22;6591;51.446;5.404;2023-02-28T06:14:16;4.60;99.90
13049;DHT22;6591;51.446;5.404;2023-02-28T06:16:45;2.80;99.70
13049;DHT22;6591;51.446;5.404;2023-02-28T06:19:13;2.80;99.70
13049;DHT22;6591;51.446;5.404;2023-02-28T06:21:41;5.00;99.90
13049;DHT22;6591;51.446;5.404;2023-02-28T06:24:09;2.90;99.70
13049;DHT22;6591;51.446;5.404;2023-02-28T06:26:36;2.90;99.70
13049;DHT22;6591;51.446;5.404;2023-02-28T06:29:04;2.90;99.70
13049;DHT22;6591;51.446;5.404;2023-02-28T06:31:32;2.90;99.60
13049;DHT22;6591;51.446;5.404;2023-02-28T06:34:00;2.90;99.70
13049;DHT22;6591;51.446;5.404;2023-02-28T06:36:27;5.10;99.90
13049;DHT22;6591;51.446;5.404;2023-02-28T06:38:54;2.90;99.60
13049;DHT22;6591;51.446;5.404;2023-02-28T06:41:26;2.90;99.70
13049;DHT22;6591;51.446;5.404;2023-02-28T06:43:54;2.90;99.70
13049;DHT22;6591;51.446;5.404;2023-02-28T06:46:22;3.00;99.70
13049;DHT22;6591;51.446;5.404;2023-02-28T06:48:50;3.00;99.70
13049;DHT22;6591;51.446;5.404;2023-02-28T06:51:19;5.00;99.90
13049;DHT22;6591;51.446;5.404;2023-02-28T06:53:49;3.00;99.60
13049;DHT22;6591;51.446;5.404;2023-02-28T06:56:18;3.10;99.20
13049;DHT22;6591;51.446;5.404;2023-02-28T06:58:48;5.10;99.90
13049;DHT22;6591;51.446;5.404;2023-02-28T07:01:17;4.50;99.80
13049;DHT22;6591;51.446;5.404;2023-02-28T07:03:45;3.10;99.20
13049;DHT22;6591;51.446;5.404;2023-02-28T07:06:12;4.40;99.50
13049;DHT22;6591;51.446;5.404;2023-02-28T07:08:40;4.80;99.40
13049;DHT22;6591;51.446;5.404;2023-02-28T07:11:07;3.00;98.90
13049;DHT22;6591;51.446;5.404;2023-02-28T07:13:35;3.10;99.00
13049;DHT22;6591;51.446;5.404;2023-02-28T07:16:04;3.10;99.00
13049;DHT22;6591;51.446;5.404;2023-02-28T07:18:34;3.10;99.00
13049;DHT22;6591;51.446;5.404;2023-02-28T07:21:06;5.20;99.50
13049;DHT22;6591;51.446;5.404;2023-02-28T07:23:36;3.10;98.90
13049;DHT22;6591;51.446;5.404;2023-02-28T07:26:11;3.90;99.00
13049;DHT22;6591;51.446;5.404;2023-02-28T07:28:42;3.20;98.80
13049;DHT22;6591;51.446;5.404;2023-02-28T07:31:23;3.20;98.70
13049;DHT22;6591;51.446;5.404;2023-02-28T07:33:50;3.30;98.60
13049;DHT22;6591;51.446;5.404;2023-02-28T07:36:17;3.30;98.60
13049;DHT22;6591;51.446;5.404;2023-02-28T07:38:47;5.70;99.40
13049;DHT22;6591;51.446;5.404;2023-02-28T07:41:19;3.50;98.70
13049;DHT22;6591;51.446;5.404;2023-02-28T07:43:48;3.60;98.60
13049;DHT22;6591;51.446;5.404;2023-02-28T07:46:16;3.70;98.20
13049;DHT22;6591;51.446;5.404;2023-02-28T07:48:44;3.80;98.50
13049;DHT22;6591;51.446;5.404;2023-02-28T07:51:12;5.80;98.80
13049;DHT22;6591;51.446;5.404;2023-02-28T07:53:39;4.00;97.70
13049;DHT22;6591;51.446;5.404;2023-02-28T07:56:07;4.20;97.60
13049;DHT22;6591;51.446;5.404;2023-02-28T07:58:35;4.20;97.50
13049;DHT22;6591;51.446;5.404;2023-02-28T08:01:09;4.40;96.60
13049;DHT22;6591;51.446;5.404;2023-02-28T08:03:38;4.40;96.50
13049;DHT22;6591;51.446;5.404;2023-02-28T08:06:08;5.60;96.80
13049;DHT22;6591;51.446;5.404;2023-02-28T08:08:42;4.50;96.30
13049;DHT22;6591;51.446;5.404;2023-02-28T08:11:11;4.50;96.80
13049;DHT22;6591;51.446;5.404;2023-02-28T08:13:38;4.50;96.00
13049;DHT22;6591;51.446;5.404;2023-02-28T08:16:05;4.50;96.10
13049;DHT22;6591;51.446;5.404;2023-02-28T08:18:32;4.50;95.50
13049;DHT22;6591;51.446;5.404;2023-02-28T08:21:06;5.40;95.60
13049;DHT22;6591;51.446;5.404;2023-02-28T08:23:36;4.50;94.80
13049;DHT22;6591;51.446;5.404;2023-02-28T08:26:04;5.60;95.10
13049;DHT22;6591;51.446;5.404;2023-02-28T08:28:32;4.50;94.40
13049;DHT22;6591;51.446;5.404;2023-02-28T08:30:59;4.50;94.40
13049;DHT22;6591;51.446;5.404;2023-02-28T08:33:27;4.60;94.40
13049;DHT22;6591;51.446;5.404;2023-02-28T08:35:55;5.10;93.70
13049;DHT22;6591;51.446;5.404;2023-02-28T08:38:24;4.70;93.40
13049;DHT22;6591;51.446;5.404;2023-02-28T08:40:58;4.80;93.70
13049;DHT22;6591;51.446;5.404;2023-02-28T08:43:27;4.90;94.00
13049;DHT22;6591;51.446;5.404;2023-02-28T08:45:55;5.00;93.70
13049;DHT22;6591;51.446;5.404;2023-02-28T08:48:30;6.70;94.00
13049;DHT22;6591;51.446;5.404;2023-02-28T08:51:02;5.20;92.20
13049;DHT22;6591;51.446;5.404;2023-02-28T08:53:37;5.30;91.70
13049;DHT22;6591;51.446;5.404;2023-02-28T08:56:09;5.40;91.70
13049;DHT22;6591;51.446;5.404;2023-02-28T08:58:38;6.60;92.70
13049;DHT22;6591;51.446;5.404;2023-02-28T09:01:14;5.70;91.50
13049;DHT22;6591;51.446;5.404;2023-02-28T09:03:46;6.90;92.00
13049;DHT22;6591;51.446;5.404;2023-02-28T09:06:17;5.80;91.90
13049;DHT22;6591;51.446;5.404;2023-02-28T09:08:46;5.90;92.20
13049;DHT22;6591;51.446;5.404;2023-02-28T09:11:13;7.00;92.20
13049;DHT22;6591;51.446;5.404;2023-02-28T09:13:41;7.30;92.50
13049;DHT22;6591;51.446;5.404;2023-02-28T09:16:11;6.30;91.10
13049;DHT22;6591;51.446;5.404;2023-02-28T09:18:40;8.40;87.50
13049;DHT22;6591;51.446;5.404;2023-02-28T09:21:09;6.40;87.30
13049;DHT22;6591;51.446;5.404;2023-02-28T09:23:41;6.50;90.20
13049;DHT22;6591;51.446;5.404;2023-02-28T09:26:24;5.10;90.00
13049;DHT22;6591;51.446;5.404;2023-02-28T09:29:04;6.60;90.20
13049;DHT22;6591;51.446;5.404;2023-02-28T09:31:31;6.80;89.50
13049;DHT22;6591;51.446;5.404;2023-02-28T09:33:59;6.80;86.50
13049;DHT22;6591;51.446;5.404;2023-02-28T09:36:26;6.90;88.10
13049;DHT22;6591;51.446;5.404;2023-02-28T09:39:10;6.90;87.50
13049;DHT22;6591;51.446;5.404;2023-02-28T09:41:45;8.30;86.40
13049;DHT22;6591;51.446;5.404;2023-02-28T09:52:54;7.40;81.90
13049;DHT22;6591;51.446;5.404;2023-02-28T09:55:36;7.40;84.40
13049;DHT22;6591;51.446;5.404;2023-02-28T09:58:23;7.60;82.60
13049;DHT22;6591;51.446;5.404;2023-02-28T10:04:14;7.60;82.20
13049;DHT22;6591;51.446;5.404;2023-02-28T10:06:53;7.70;78.00
13049;DHT22;6591;51.446;5.404;2023-02-28T10:09:41;7.70;81.60
13049;DHT22;6591;51.446;5.404;2023-02-28T10:12:09;8.20;77.60
13049;DHT22;6591;51.446;5.404;2023-02-28T10:14:42;10.10;79.50
13049;DHT22;6591;51.446;5.404;2023-02-28T10:17:19;8.90;81.10
13049;DHT22;6591;51.446;5.404;2023-02-28T10:20:02;10.20;81.30
13049;DHT22;6591;51.446;5.404;2023-02-28T10:22:56;9.50;81.40
13049;DHT22;6591;51.446;5.404;2023-02-28T10:25:27;8.30;79.90
13049;DHT22;6591;51.446;5.404;2023-02-28T10:28:12;9.90;80.30
13049;DHT22;6591;51.446;5.404;2023-02-28T10:30:48;8.50;78.10
13049;DHT22;6591;51.446;5.404;2023-02-28T10:33:28;8.60;77.90
13049;DHT22;6591;51.446;5.404;2023-02-28T10:35:58;10.50;74.40
13049;DHT22;6591;51.446;5.404;2023-02-28T10:38:33;8.70;74.60
13049;DHT22;6591;51.446;5.404;2023-02-28T10:41:14;8.70;74.80
13049;DHT22;6591;51.446;5.404;2023-02-28T10:43:43;8.70;76.30
13049;DHT22;6591;51.446;5.404;2023-02-28T10:46:18;11.10;77.00
13049;DHT22;6591;51.446;5.404;2023-02-28T10:49:03;8.80;74.00
13049;DHT22;6591;51.446;5.404;2023-02-28T10:51:40;8.90;71.50
13049;DHT22;6591;51.446;5.404;2023-02-28T10:54:28;11.10;69.30
13049;DHT22;6591;51.446;5.404;2023-02-28T10:57:22;8.90;68.20
13049;DHT22;6591;51.446;5.404;2023-02-28T11:00:14;8.80;72.80
13049;DHT22;6591;51.446;5.404;2023-02-28T11:02:49;8.90;74.10
13049;DHT22;6591;51.446;5.404;2023-02-28T11:05:33;9.00;74.80
13049;DHT22;6591;51.446;5.404;2023-02-28T11:08:15;10.30;75.90
13049;DHT22;6591;51.446;5.404;2023-02-28T11:10:58;9.20;73.40
13049;DHT22;6591;51.446;5.404;2023-02-28T11:13:35;9.40;72.40
13049;DHT22;6591;51.446;5.404;2023-02-28T11:16:06;9.50;74.10
13049;DHT22;6591;51.446;5.404;2023-02-28T11:18:55;9.60;73.00
13049;DHT22;6591;51.446;5.404;2023-02-28T11:21:27;9.70;70.40
13049;DHT22;6591;51.446;5.404;2023-02-28T11:24:22;9.70;71.10
13049;DHT22;6591;51.446;5.404;2023-02-28T11:26:53;9.70;69.60
13049;DHT22;6591;51.446;5.404;2023-02-28T11:29:28;9.50;70.60
13049;DHT22;6591;51.446;5.404;2023-02-28T11:32:19;9.70;69.50
13049;DHT22;6591;51.446;5.404;2023-02-28T11:35:17;9.70;68.80
13049;DHT22;6591;51.446;5.404;2023-02-28T11:37:50;9.80;64.20
13049;DHT22;6591;51.446;5.404;2023-02-28T11:40:46;11.60;69.10
13049;DHT22;6591;51.446;5.404;2023-02-28T11:43:56;9.70;67.00
13049;DHT22;6591;51.446;5.404;2023-02-28T11:54:47;10.00;70.60
13049;DHT22;6591;51.446;5.404;2023-02-28T11:57:41;11.00;70.00
13049;DHT22;6591;51.446;5.404;2023-02-28T12:06:45;10.30;69.20
13049;DHT22;6591;51.446;5.404;2023-02-28T12:15:33;10.40;68.80
13049;DHT22;6591;51.446;5.404;2023-02-28T12:18:21;10.40;66.60
13049;DHT22;6591;51.446;5.404;2023-02-28T12:21:01;12.30;68.80
13049;DHT22;6591;51.446;5.404;2023-02-28T12:26:43;10.40;63.60
13049;DHT22;6591;51.446;5.404;2023-02-28T12:29:16;10.40;65.30
13049;DHT22;6591;51.446;5.404;2023-02-28T12:31:55;10.40;67.70
13049;DHT22;6591;51.446;5.404;2023-02-28T12:34:32;10.40;66.90
13049;DHT22;6591;51.446;5.404;2023-02-28T12:37:25;10.70;69.20
13049;DHT22;6591;51.446;5.404;2023-02-28T12:40:04;10.40;67.60
13049;DHT22;6591;51.446;5.404;2023-02-28T12:42:55;9.50;67.90
13049;DHT22;6591;51.446;5.404;2023-02-28T12:45:50;10.50;65.00
13049;DHT22;6591;51.446;5.404;2023-02-28T12:48:49;10.50;66.80
13049;DHT22;6591;51.446;5.404;2023-02-28T12:51:19;10.80;65.90
13049;DHT22;6591;51.446;5.404;2023-02-28T13:05:34;10.70;65.80
13049;DHT22;6591;51.446;5.404;2023-02-28T13:10:54;10.70;63.10
13049;DHT22;6591;51.446;5.404;2023-02-28T13:13:26;11.10;66.10
13049;DHT22;6591;51.446;5.404;2023-02-28T13:16:08;11.80;66.30
13049;DHT22;6591;51.446;5.404;2023-02-28T13:18:38;10.70;63.40
13049;DHT22;6591;51.446;5.404;2023-02-28T13:21:27;12.10;63.40
13049;DHT22;6591;51.446;5.404;2023-02-28T13:24:00;10.60;61.90
13049;DHT22;6591;51.446;5.404;2023-02-28T13:39:54;10.20;60.80
13049;DHT22;6591;51.446;5.404;2023-02-28T13:42:34;10.20;63.60
13049;DHT22;6591;51.446;5.404;2023-02-28T13:50:35;10.30;65.70
13049;DHT22;6591;51.446;5.404;2023-02-28T13:56:04;10.50;65.10
13049;DHT22;6591;51.446;5.404;2023-02-28T13:58:53;10.60;65.50
13049;DHT22;6591;51.446;5.404;2023-02-28T14:04:41;10.80;65.40
13049;DHT22;6591;51.446;5.404;2023-02-28T14:07:44;10.80;65.20
13049;DHT22;6591;51.446;5.404;2023-02-28T14:10:32;10.90;64.20
13049;DHT22;6591;51.446;5.404;2023-02-28T14:13:17;11.00;64.20
13049;DHT22;6591;51.446;5.404;2023-02-28T14:16:05;12.60;64.90
13049;DHT22;6591;51.446;5.404;2023-02-28T14:18:37;10.90;63.40
13049;DHT22;6591;51.446;5.404;2023-02-28T14:27:36;10.80;61.40
13049;DHT22;6591;51.446;5.404;2023-02-28T14:36:38;10.50;58.50
13049;DHT22;6591;51.446;5.404;2023-02-28T14:39:13;10.40;59.10
13049;DHT22;6591;51.446;5.404;2023-02-28T14:41:44;10.30;60.40
13049;DHT22;6591;51.446;5.404;2023-02-28T14:44:19;10.20;61.90
13049;DHT22;6591;51.446;5.404;2023-02-28T14:46:54;10.20;61.70
13049;DHT22;6591;51.446;5.404;2023-02-28T14:49:32;10.20;61.70
13049;DHT22;6591;51.446;5.404;2023-02-28T14:52:07;10.20;60.60
13049;DHT22;6591;51.446;5.404;2023-02-28T14:54:43;11.70;64.00
13049;DHT22;6591;51.446;5.404;2023-02-28T14:57:25;11.30;64.20
13049;DHT22;6591;51.446;5.404;2023-02-28T15:02:53;10.30;60.70
13049;DHT22;6591;51.446;5.404;2023-02-28T15:05:30;10.40;61.50
13049;DHT22;6591;51.446;5.404;2023-02-28T15:08:12;10.30;60.80
13049;DHT22;6591;51.446;5.404;2023-02-28T15:10:56;10.40;62.10
13049;DHT22;6591;51.446;5.404;2023-02-28T15:16:22;10.40;62.10
13049;DHT22;6591;51.446;5.404;2023-02-28T15:18:56;11.90;62.60
13049;DHT22;6591;51.446;5.404;2023-02-28T15:21:38;10.30;63.60
13049;DHT22;6591;51.446;5.404;2023-02-28T15:24:43;10.40;62.90
13049;DHT22;6591;51.446;5.404;2023-02-28T15:27:35;10.40;60.10
13049;DHT22;6591;51.446;5.404;2023-02-28T15:30:17;10.50;62.40
13049;DHT22;6591;51.446;5.404;2023-02-28T15:35:38;10.40;60.40
13049;DHT22;6591;51.446;5.404;2023-02-28T15:40:53;10.80;60.00
13049;DHT22;6591;51.446;5.404;2023-02-28T15:43:31;11.50;60.40
13049;DHT22;6591;51.446;5.404;2023-02-28T15:46:11;10.30;61.60
13049;DHT22;6591;51.446;5.404;2023-02-28T15:48:54;10.20;62.50
13049;DHT22;6591;51.446;5.404;2023-02-28T15:51:32;10.20;61.50
13049;DHT22;6591;51.446;5.404;2023-02-28T15:54:06;10.20;61.30
13049;DHT22;6591;51.446;5.404;2023-02-28T15:56:44;10.10;61.70
13049;DHT22;6591;51.446;5.404;2023-02-28T15:59:28;10.20;61.40
13049;DHT22;6591;51.446;5.404;2023-02-28T16:07:44;10.10;61.30
13049;DHT22;6591;51.446;5.404;2023-02-28T16:10:13;10.90;61.50
13049;DHT22;6591;51.446;5.404;2023-02-28T16:12:41;9.80;61.40
13049;DHT22;6591;51.446;5.404;2023-02-28T16:18:13;9.70;61.90
13049;DHT22;6591;51.446;5.404;2023-02-28T16:20:40;11.10;62.90
13049;DHT22;6591;51.446;5.404;2023-02-28T16:23:08;9.70;62.20
13049;DHT22;6591;51.446;5.404;2023-02-28T16:25:40;9.60;62.80
13049;DHT22;6591;51.446;5.404;2023-02-28T16:28:24;9.60;61.80
13049;DHT22;6591;51.446;5.404;2023-02-28T16:30:56;9.60;62.30
13049;DHT22;6591;51.446;5.404;2023-02-28T16:33:24;9.50;63.10
13049;DHT22;6591;51.446;5.404;2023-02-28T16:35:51;10.30;63.10
13049;DHT22;6591;51.446;5.404;2023-02-28T16:38:19;9.40;62.60
13049;DHT22;6591;51.446;5.404;2023-02-28T16:40:49;9.30;63.80
13049;DHT22;6591;51.446;5.404;2023-02-28T16:43:19;9.30;63.80
13049;DHT22;6591;51.446;5.404;2023-02-28T16:45:57;9.30;63.00
13049;DHT22;6591;51.446;5.404;2023-02-28T16:48:28;9.30;63.00
13049;DHT22;6591;51.446;5.404;2023-02-28T16:50:57;10.10;64.20
13049;DHT22;6591;51.446;5.404;2023-02-28T16:53:24;9.10;63.80
13049;DHT22;6591;51.446;5.404;2023-02-28T16:55:51;9.00;64.00
13049;DHT22;6591;51.446;5.404;2023-02-28T16:58:18;8.90;63.90
13049;DHT22;6591;51.446;5.404;2023-02-28T17:00:48;10.40;64.70
13049;DHT22;6591;51.446;5.404;2023-02-28T17:03:25;8.70;63.90
13049;DHT22;6591;51.446;5.404;2023-02-28T17:05:59;8.60;63.90
13049;DHT22;6591;51.446;5.404;2023-02-28T17:08:26;9.90;65.20
13049;DHT22;6591;51.446;5.404;2023-02-28T17:10:56;10.30;65.70
13049;DHT22;6591;51.446;5.404;2023-02-28T17:13:23;8.20;64.50
13049;DHT22;6591;51.446;5.404;2023-02-28T17:15:50;8.00;64.60
13049;DHT22;6591;51.446;5.404;2023-02-28T17:18:20;7.80;65.00
13049;DHT22;6591;51.446;5.404;2023-02-28T17:20:48;7.60;65.20
13049;DHT22;6591;51.446;5.404;2023-02-28T17:23:16;7.50;65.80
13049;DHT22;6591;51.446;5.404;2023-02-28T17:25:43;7.80;66.30
13049;DHT22;6591;51.446;5.404;2023-02-28T17:28:23;7.40;66.50
13049;DHT22;6591;51.446;5.404;2023-02-28T17:30:50;7.00;66.50
13049;DHT22;6591;51.446;5.404;2023-02-28T17:33:17;8.40;68.00
13049;DHT22;6591;51.446;5.404;2023-02-28T17:35:44;6.70;67.10
13049;DHT22;6591;51.446;5.404;2023-02-28T17:38:19;6.60;67.60
13049;DHT22;6591;51.446;5.404;2023-02-28T17:40:46;6.50;68.10
13049;DHT22;6591;51.446;5.404;2023-02-28T17:43:13;8.20;69.20
13049;DHT22;6591;51.446;5.404;2023-02-28T17:45:41;6.10;68.40
13049;DHT22;6591;51.446;5.404;2023-02-28T17:48:11;7.50;69.70
13049;DHT22;6591;51.446;5.404;2023-02-28T17:50:40;6.00;69.40
13049;DHT22;6591;51.446;5.404;2023-02-28T17:53:07;5.90;69.50
13049;DHT22;6591;51.446;5.404;2023-02-28T17:55:35;7.70;71.10
13049;DHT22;6591;51.446;5.404;2023-02-28T17:58:03;8.20;71.80
13049;DHT22;6591;51.446;5.404;2023-02-28T18:00:30;8.00;71.90
13049;DHT22;6591;51.446;5.404;2023-02-28T18:03:00;7.70;71.90
13049;DHT22;6591;51.446;5.404;2023-02-28T18:05:27;5.60;70.40
13049;DHT22;6591;51.446;5.404;2023-02-28T18:07:54;5.50;70.50
13049;DHT22;6591;51.446;5.404;2023-02-28T18:10:21;6.30;71.10
13049;DHT22;6591;51.446;5.404;2023-02-28T18:12:52;5.40;71.30
13049;DHT22;6591;51.446;5.404;2023-02-28T18:15:21;7.10;72.80
13049;DHT22;6591;51.446;5.404;2023-02-28T18:17:49;5.30;71.90
13049;DHT22;6591;51.446;5.404;2023-02-28T18:20:17;5.20;71.80
13049;DHT22;6591;51.446;5.404;2023-02-28T18:22:45;5.20;71.80
13049;DHT22;6591;51.446;5.404;2023-02-28T18:25:13;5.10;71.70
13049;DHT22;6591;51.446;5.404;2023-02-28T18:27:43;5.10;72.00
13049;DHT22;6591;51.446;5.404;2023-02-28T18:30:27;7.10;73.60
13049;DHT22;6591;51.446;5.404;2023-02-28T18:32:58;7.20;74.10
13049;DHT22;6591;51.446;5.404;2023-02-28T18:40:31;4.70;73.60
13049;DHT22;6591;51.446;5.404;2023-02-28T18:42:58;4.50;73.70
13049;DHT22;6591;51.446;5.404;2023-02-28T18:45:26;4.60;74.20
13049;DHT22;6591;51.446;5.404;2023-02-28T18:47:54;6.90;75.50
13049;DHT22;6591;51.446;5.404;2023-02-28T18:50:21;4.50;74.10
13049;DHT22;6591;51.446;5.404;2023-02-28T18:52:48;6.70;75.90
13049;DHT22;6591;51.446;5.404;2023-02-28T18:55:16;4.40;74.60
13049;DHT22;6591;51.446;5.404;2023-02-28T18:57:46;4.40;74.80
13049;DHT22;6591;51.446;5.404;2023-02-28T19:00:15;4.20;75.20
13049;DHT22;6591;51.446;5.404;2023-02-28T19:02:49;4.20;75.10